KEEN/EEN METAR and TAF weather

Enter ICAO airport designator
Station Type Date Time Source
KEEN METAR 2022/05/25 00:56 UTC NOAA

KEEN 250056Z AUTO 17007KT 10SM FEW075 16/08 A3030 RMK AO2 SLP263 T01560078 $


Station Type Date Time Source
KEEN Decoded METAR 2022/05/25 00:56 UTC NOAA

Keene, Dillant-Hopkins Airport, NH, United States (KEEN) 42-54N 072-16W
May 24, 2022 - 08:56 PM EDT / 2022.05.25 0056 UTC
Wind: from the S (170 degrees) at 8 MPH (7 KT):0
Visibility: 10 mile(s):0
Sky conditions: mostly clear
Temperature: 60.1 F (15.6 C)
Dew Point: 46.0 F (7.8 C)
Relative Humidity: 59%
Pressure (altimeter): 30.3 in. Hg (1026 hPa)
ob: KEEN 250056Z AUTO 17007KT 10SM FEW075 16/08 A3030 RMK AO2 SLP263 T01560078
cycle: 1

Station Type Date Time Source
KEEN TAF UTC NOAA

Error!

Example: see airport list